Time;durP1;ratioP1;P1;durP2;ratioP2;P2;SDS_P1;SDS_P2;PMS_P1;PMS_P2;Temp;Humidity;BMP_temperature;BMP_pressure;BME280_temperature;BME280_humidity;BME280_pressure;Samples;Min_cycle;Max_cycle;Signal;HPM_P1;HPM_P2
2022/06/24 00:00:18;;;;;;;4.93;3.13;;;;;;;10.87;71.76;95619.77;1820634;79;20976;-65
2022/06/24 00:02:50;;;;;;;4.70;2.10;;;;;;;10.85;72.17;95614.97;1820374;78;21008;-65
2022/06/24 00:05:17;;;;;;;2.37;1.93;;;;;;;10.86;71.73;95620.23;1820615;79;21502;-65
2022/06/24 00:07:49;;;;;;;3.53;2.30;;;;;;;10.85;72.12;95621.56;1820542;78;21024;-65
2022/06/24 00:10:20;;;;;;;4.20;2.08;;;;;;;10.83;71.44;95616.30;1820522;79;21526;-65
2022/06/24 00:12:48;;;;;;;1.90;1.80;;;;;;;10.93;71.64;95614.36;1820487;79;20980;-65
2022/06/24 00:15:28;;;;;;;3.63;2.10;;;;;;;11.01;71.40;95614.64;1820321;79;21096;-65
2022/06/24 00:17:55;;;;;;;2.87;2.30;;;;;;;10.99;70.93;95616.90;1819911;78;21000;-65
2022/06/24 00:20:23;;;;;;;2.40;2.20;;;;;;;10.93;71.55;95617.00;1820525;79;21462;-65
2022/06/24 00:22:53;;;;;;;2.70;1.80;;;;;;;10.89;71.62;95616.66;1820182;79;21546;-65
2022/06/24 00:25:23;;;;;;;1.90;1.70;;;;;;;10.79;71.05;95615.50;1820152;79;21024;-65
2022/06/24 00:28:10;;;;;;;5.17;2.60;;;;;;;10.74;71.06;95616.50;1820550;79;21533;-65
2022/06/24 00:30:40;;;;;;;3.00;1.90;;;;;;;10.74;71.25;95613.41;1820212;79;21057;-65
2022/06/24 00:33:16;;;;;;;3.13;2.60;;;;;;;10.74;71.00;95613.86;1820605;78;20980;-65
2022/06/24 00:35:50;;;;;;;2.47;2.17;;;;;;;10.70;72.36;95618.77;1820567;79;21533;-65
2022/06/24 00:38:35;;;;;;;6.73;2.23;;;;;;;10.66;72.24;95614.00;1819803;79;21511;-65
2022/06/24 00:41:12;;;;;;;4.57;2.13;;;;;;;10.63;72.51;95615.81;1820514;79;21530;-65
2022/06/24 00:43:45;;;;;;;3.40;2.20;;;;;;;10.66;72.29;95621.03;1813885;78;21021;-65
2022/06/24 00:46:28;;;;;;;2.40;2.03;;;;;;;10.58;72.49;95624.70;1809770;78;21070;-65
2022/06/24 00:48:58;;;;;;;3.10;1.90;;;;;;;10.56;72.73;95619.89;1809743;79;21011;-65
2022/06/24 00:51:38;;;;;;;2.47;2.10;;;;;;;10.55;72.53;95620.77;1808880;79;21017;-65
2022/06/24 00:54:14;;;;;;;2.63;2.30;;;;;;;10.43;72.65;95616.17;1809604;78;21123;-65
2022/06/24 00:56:42;;;;;;;2.00;1.90;;;;;;;10.35;71.95;95615.85;1809807;79;21048;-65
2022/06/24 00:59:09;;;;;;;1.93;1.77;;;;;;;10.31;72.90;95612.86;1809784;79;20996;-65
2022/06/24 01:01:42;;;;;;;2.03;1.70;;;;;;;10.33;72.49;95604.48;1809870;78;21004;-65
2022/06/24 01:04:11;;;;;;;3.37;2.10;;;;;;;10.34;72.37;95600.94;1809733;78;21079;-65
2022/06/24 01:06:41;;;;;;;2.63;2.37;;;;;;;10.30;73.17;95599.69;1809209;79;21032;-65
2022/06/24 01:09:09;;;;;;;2.97;2.10;;;;;;;10.37;72.93;95600.02;1809712;79;20988;-65
2022/06/24 01:11:41;;;;;;;3.50;2.50;;;;;;;10.41;72.83;95595.12;1809406;79;21590;-65
2022/06/24 01:14:09;;;;;;;2.52;2.10;;;;;;;10.37;72.90;95595.60;1809951;79;21087;-65
2022/06/24 01:16:36;;;;;;;4.20;2.10;;;;;;;10.40;72.53;95597.31;1810079;78;21024;-65
2022/06/24 01:19:10;;;;;;;2.00;1.80;;;;;;;10.36;72.14;95593.01;1809547;79;21004;-65
2022/06/24 01:21:39;;;;;;;2.37;1.60;;;;;;;10.34;72.42;95588.20;1809566;79;20973;-65
2022/06/24 01:24:15;;;;;;;2.10;1.77;;;;;;;10.32;72.13;95589.99;1809549;79;21052;-65
2022/06/24 01:26:47;;;;;;;1.90;1.67;;;;;;;10.28;73.07;95592.25;1809529;79;21104;-65
2022/06/24 01:29:15;;;;;;;2.63;2.10;;;;;;;10.18;73.72;95590.22;1806489;79;21016;-65
2022/06/24 01:31:48;;;;;;;2.50;1.97;;;;;;;10.18;72.98;95595.03;1809669;79;21015;-65
2022/06/24 01:34:14;;;;;;;2.90;1.90;;;;;;;10.15;72.64;95595.09;1809208;79;21495;-65
2022/06/24 01:36:40;;;;;;;2.50;2.10;;;;;;;10.09;73.05;95599.13;1809252;79;21088;-65
2022/06/24 01:39:08;;;;;;;3.60;2.43;;;;;;;10.08;73.76;95590.81;1809834;79;20997;-65
2022/06/24 01:41:36;;;;;;;2.10;1.90;;;;;;;10.19;73.62;95594.58;1809491;79;21024;-65
2022/06/24 01:44:03;;;;;;;2.07;1.87;;;;;;;10.28;73.85;95590.93;1816672;79;21556;-65
2022/06/24 01:46:30;;;;;;;1.80;1.70;;;;;;;10.21;73.69;95595.88;1820356;79;20996;-65
2022/06/24 01:48:57;;;;;;;2.40;2.17;;;;;;;10.13;74.07;95593.34;1820423;79;21009;-65
2022/06/24 01:51:26;;;;;;;2.87;1.90;;;;;;;10.13;73.75;95596.88;1819970;79;21118;-66
2022/06/24 01:53:53;;;;;;;2.00;1.80;;;;;;;10.06;73.61;95594.38;1798134;78;20991;-65
2022/06/24 01:56:20;;;;;;;1.80;1.70;;;;;;;10.00;73.34;95593.14;1820603;79;20965;-65
2022/06/24 01:58:47;;;;;;;2.13;1.80;;;;;;;9.92;74.03;95591.48;1820325;79;21051;-65
2022/06/24 02:01:14;;;;;;;2.07;1.87;;;;;;;9.87;73.99;95601.69;1820142;79;20976;-65
2022/06/24 02:03:41;;;;;;;2.53;1.80;;;;;;;9.85;74.29;95608.74;1820444;79;21008;-65
2022/06/24 02:06:12;;;;;;;2.10;1.90;;;;;;;9.79;73.58;95594.36;1820466;78;21474;-65
2022/06/24 02:08:39;;;;;;;1.80;1.70;;;;;;;9.78;74.65;95598.77;1820283;79;20961;-65
2022/06/24 02:13:55;;;;;;;2.93;2.50;;;;;;;9.68;74.61;95604.61;1820047;79;21564;-65
2022/06/24 02:16:22;;;;;;;2.53;2.20;;;;;;;9.63;74.90;95609.08;1820291;79;21549;-65
2022/06/24 02:18:49;;;;;;;2.57;2.37;;;;;;;9.62;74.73;95603.37;1820424;79;21490;-65
2022/06/24 02:21:16;;;;;;;3.20;1.93;;;;;;;9.58;74.38;95603.47;1820168;79;21061;-65
2022/06/24 02:23:43;;;;;;;3.37;2.27;;;;;;;9.53;74.71;95604.84;1820304;79;21047;-65
2022/06/24 02:26:10;;;;;;;4.00;2.00;;;;;;;9.48;74.47;95604.91;1820531;79;21067;-65
2022/06/24 02:28:37;;;;;;;2.73;1.90;;;;;;;9.44;74.57;95603.65;1820345;79;21430;-65
2022/06/24 02:31:06;;;;;;;2.30;2.10;;;;;;;9.39;75.63;95607.66;1820146;79;21135;-65
2022/06/24 02:33:33;;;;;;;2.07;1.87;;;;;;;9.43;75.55;95608.50;1820476;79;21038;-65
2022/06/24 02:36:01;;;;;;;2.97;2.13;;;;;;;9.45;74.48;95611.95;1820284;79;21008;-65
2022/06/24 02:38:28;;;;;;;2.57;2.37;;;;;;;9.31;75.22;95604.27;1820089;79;21439;-65
2022/06/24 02:40:54;;;;;;;3.70;2.50;;;;;;;9.26;75.36;95606.95;1820533;79;20968;-65
2022/06/24 02:43:29;;;;;;;4.23;2.80;;;;;;;9.23;75.33;95610.95;1818423;78;21032;-65
2022/06/24 02:46:07;;;;;;;4.77;2.43;;;;;;;9.19;75.60;95612.32;1808373;79;21067;-65
2022/06/24 02:48:36;;;;;;;2.73;2.53;;;;;;;9.26;75.60;95611.35;1809617;79;20969;-65
2022/06/24 02:51:06;;;;;;;3.17;2.00;;;;;;;9.32;76.04;95612.58;1809527;78;21012;-65
2022/06/24 02:53:34;;;;;;;2.20;2.00;;;;;;;9.38;75.45;95613.83;1809512;78;21020;-65
2022/06/24 02:56:04;;;;;;;2.40;2.00;;;;;;;9.40;76.44;95615.10;1809658;78;20989;-65
2022/06/24 02:58:32;;;;;;;2.27;2.07;;;;;;;9.41;76.38;95619.50;1809329;79;21082;-65
2022/06/24 03:01:00;;;;;;;2.40;2.10;;;;;;;9.44;75.69;95616.36;1809573;79;21004;-65
2022/06/24 03:03:28;;;;;;;2.10;1.57;;;;;;;9.58;75.35;95616.64;1809471;79;21012;-65
2022/06/24 03:05:55;;;;;;;2.20;2.00;;;;;;;9.65;74.77;95615.20;1809110;79;21028;-65
2022/06/24 03:08:24;;;;;;;3.80;2.00;;;;;;;9.65;74.88;95610.36;1809653;79;20993;-65
2022/06/24 03:10:51;;;;;;;2.43;2.00;;;;;;;9.63;74.95;95614.81;1809409;79;21525;-65
2022/06/24 03:13:19;;;;;;;5.13;2.20;;;;;;;9.56;74.96;95607.42;1809489;78;21526;-65
2022/06/24 03:15:48;;;;;;;3.33;2.33;;;;;;;9.60;74.94;95611.77;1809563;79;20969;-65
2022/06/24 03:18:15;;;;;;;2.60;2.13;;;;;;;9.64;74.62;95612.13;1809446;78;21514;-65
2022/06/24 03:20:42;;;;;;;2.20;2.00;;;;;;;9.73;75.07;95618.59;1809218;79;21051;-65
2022/06/24 03:23:09;;;;;;;4.73;1.90;;;;;;;9.81;74.77;95613.66;1809439;79;21510;-65
2022/06/24 03:25:36;;;;;;;3.37;2.13;;;;;;;9.92;74.87;95614.34;1809453;79;20996;-65
2022/06/24 03:28:04;;;;;;;3.20;2.17;;;;;;;10.03;75.12;95616.80;1809472;78;21059;-65
2022/06/24 03:30:32;;;;;;;3.43;2.30;;;;;;;10.18;74.15;95616.13;1809493;79;21467;-65
2022/06/24 03:33:00;;;;;;;3.10;2.47;;;;;;;10.30;73.46;95612.88;1809434;78;21024;-65
2022/06/24 03:35:27;;;;;;;3.87;2.60;;;;;;;10.39;73.30;95613.59;1809813;79;21068;-65
2022/06/24 03:37:54;;;;;;;4.20;2.70;;;;;;;10.36;73.17;95605.73;1809375;78;21028;-65
2022/06/24 03:40:21;;;;;;;2.90;2.03;;;;;;;10.37;73.54;95611.88;1809185;79;21016;-65
2022/06/24 03:42:48;;;;;;;4.20;2.20;;;;;;;10.33;74.36;95609.76;1809518;79;21000;-65
2022/06/24 03:45:14;;;;;;;3.97;2.70;;;;;;;10.27;74.45;95607.17;1818586;79;21039;-65
2022/06/24 03:47:42;;;;;;;2.60;2.27;;;;;;;10.23;75.06;95610.78;1820134;79;21019;-65
2022/06/24 03:50:09;;;;;;;6.47;2.73;;;;;;;10.26;74.41;95608.55;1820136;79;21013;-65
2022/06/24 03:52:36;;;;;;;3.23;2.53;;;;;;;10.30;74.56;95612.88;1820326;79;20984;-65
2022/06/24 03:55:04;;;;;;;3.27;2.47;;;;;;;10.38;74.87;95605.27;1820333;79;21052;-65
2022/06/24 03:57:30;;;;;;;2.77;2.30;;;;;;;10.48;75.04;95615.64;1820286;79;21071;-65
2022/06/24 03:59:57;;;;;;;2.57;2.37;;;;;;;10.60;74.03;95612.33;1820536;79;20992;-65
2022/06/24 04:02:24;;;;;;;3.20;2.60;;;;;;;10.75;73.95;95612.49;1820547;79;20976;-65
2022/06/24 04:04:51;;;;;;;4.57;2.43;;;;;;;10.92;74.29;95616.59;1820548;79;21466;-65
2022/06/24 04:07:18;;;;;;;4.17;2.50;;;;;;;11.04;74.17;95616.36;1820241;78;20964;-65
2022/06/24 04:09:44;;;;;;;3.57;3.10;;;;;;;11.16;74.00;95620.07;1820547;79;20989;-65
2022/06/24 04:12:12;;;;;;;2.60;2.40;;;;;;;11.30;73.41;95613.63;1820442;79;21131;-65
2022/06/24 04:17:24;;;;;;;3.97;2.77;;;;;;;11.50;73.13;95616.70;1820536;79;21506;-65
2022/06/24 04:19:52;;;;;;;3.37;2.73;;;;;;;11.61;72.70;95614.68;1820613;79;21001;-65
2022/06/24 04:22:19;;;;;;;3.10;2.80;;;;;;;11.73;72.11;95621.48;1820287;79;21047;-65
2022/06/24 04:24:46;;;;;;;3.47;2.70;;;;;;;11.85;72.06;95621.20;1820491;79;20969;-65
2022/06/24 04:27:13;;;;;;;3.63;3.00;;;;;;;11.99;71.89;95622.67;1820366;79;21023;-65
2022/06/24 04:29:41;;;;;;;4.27;2.90;;;;;;;12.11;71.51;95613.99;1820151;79;21502;-65
2022/06/24 04:32:08;;;;;;;2.90;2.60;;;;;;;12.26;71.47;95610.56;1820746;79;21008;-65
2022/06/24 04:34:38;;;;;;;2.70;2.50;;;;;;;12.42;71.75;95610.58;1820418;79;20984;-65
2022/06/24 04:37:06;;;;;;;3.07;2.77;;;;;;;12.60;71.37;95615.88;1820324;79;21446;-65
2022/06/24 04:39:33;;;;;;;2.93;2.60;;;;;;;12.73;71.59;95608.02;1820408;79;21055;-65
2022/06/24 04:42:00;;;;;;;3.72;2.50;;;;;;;12.88;70.03;95609.38;1820527;79;21043;-65
2022/06/24 04:44:26;;;;;;;3.20;2.47;;;;;;;13.01;69.26;95607.27;1816795;78;21013;-65
2022/06/24 04:46:53;;;;;;;3.13;2.60;;;;;;;13.19;70.13;95608.52;1809266;79;20985;-65
2022/06/24 04:49:20;;;;;;;3.20;2.67;;;;;;;13.35;69.15;95607.64;1809325;79;21046;-65
2022/06/24 04:51:47;;;;;;;3.40;2.70;;;;;;;13.47;67.96;95611.27;1809688;79;20997;-65
2022/06/24 04:54:14;;;;;;;3.27;2.72;;;;;;;13.64;68.02;95611.63;1809598;78;20945;-65
2022/06/24 04:56:40;;;;;;;4.67;2.50;;;;;;;13.79;68.55;95604.99;1809419;79;20965;-65
2022/06/24 04:59:07;;;;;;;3.45;2.35;;;;;;;14.01;67.65;95608.28;1809903;79;21016;-65
2022/06/24 05:01:34;;;;;;;3.10;2.80;;;;;;;14.16;67.50;95608.25;1809648;79;21013;-65
2022/06/24 05:04:01;;;;;;;3.50;2.50;;;;;;;14.26;66.63;95614.56;1809543;78;20977;-65
2022/06/24 05:06:29;;;;;;;3.92;2.42;;;;;;;14.43;66.68;95606.48;1809393;79;21075;-65
2022/06/24 05:08:56;;;;;;;3.83;2.72;;;;;;;14.55;66.33;95606.58;1809711;79;21013;-65
2022/06/24 05:11:23;;;;;;;2.65;2.42;;;;;;;14.68;65.95;95611.40;1809222;79;21029;-65
2022/06/24 05:13:51;;;;;;;3.15;2.30;;;;;;;14.80;65.64;95611.45;1809683;78;20941;-65
2022/06/24 05:16:17;;;;;;;3.02;2.72;;;;;;;14.91;65.43;95609.27;1809672;78;21056;-65
2022/06/24 05:18:44;;;;;;;3.40;2.72;;;;;;;15.06;65.22;95613.64;1809672;79;21024;-65
2022/06/24 05:21:11;;;;;;;4.37;3.08;;;;;;;15.24;65.39;95620.08;1809621;79;21029;-65
2022/06/24 05:23:37;;;;;;;3.22;2.45;;;;;;;15.39;64.95;95619.52;1809757;78;20941;-65
2022/06/24 05:26:04;;;;;;;6.58;2.67;;;;;;;15.53;63.89;95621.20;1809337;78;21009;-65
2022/06/24 05:28:35;;;;;;;3.05;2.60;;;;;;;15.66;62.85;95621.61;1809385;79;20991;-65
2022/06/24 05:31:02;;;;;;;6.62;2.70;;;;;;;15.81;62.86;95620.19;1809314;78;21024;-65
2022/06/24 05:33:30;;;;;;;3.20;2.42;;;;;;;16.01;62.55;95618.08;1809594;79;21052;-65
2022/06/24 05:35:58;;;;;;;4.12;2.70;;;;;;;16.17;60.48;95615.66;1809749;79;21399;-65
2022/06/24 05:38:26;;;;;;;2.60;2.40;;;;;;;16.30;60.81;95623.55;1809469;78;21009;-65
2022/06/24 05:40:53;;;;;;;2.60;2.40;;;;;;;16.46;61.00;95621.62;1809585;78;21455;-65
2022/06/24 05:43:20;;;;;;;7.08;2.30;;;;;;;16.65;60.77;95615.44;1809275;78;21057;-65
2022/06/24 05:45:48;;;;;;;8.03;2.62;;;;;;;16.87;60.11;95618.09;1818478;79;21084;-65
2022/06/24 05:48:15;;;;;;;6.65;2.27;;;;;;;17.04;57.80;95620.52;1820418;78;21059;-65
2022/06/24 05:50:42;;;;;;;8.10;2.40;;;;;;;17.15;56.71;95616.89;1820522;79;21004;-65
2022/06/24 05:56:00;;;;;;;4.42;2.10;;;;;;;17.48;57.14;95623.85;1820513;79;21003;-65
2022/06/24 05:58:28;;;;;;;4.40;2.35;;;;;;;17.68;56.93;95622.94;1820626;79;20980;-65
2022/06/24 06:00:56;;;;;;;4.40;2.55;;;;;;;17.84;55.34;95622.27;1820304;78;21446;-65
2022/06/24 06:03:25;;;;;;;5.67;2.17;;;;;;;17.93;55.45;95624.03;1820344;79;21027;-65
2022/06/24 06:05:52;;;;;;;9.45;2.40;;;;;;;18.04;54.45;95619.98;1820485;79;21463;-65
2022/06/24 06:08:19;;;;;;;6.30;2.17;;;;;;;18.14;55.05;95624.84;1819998;79;21141;-65
2022/06/24 06:10:46;;;;;;;6.60;2.37;;;;;;;18.37;50.76;95611.70;1820479;78;20992;-65
2022/06/24 06:13:13;;;;;;;6.47;2.33;;;;;;;18.50;50.77;95618.64;1820422;79;21016;-65
2022/06/24 06:15:42;;;;;;;2.55;2.27;;;;;;;18.50;50.77;95618.64;1820482;79;21036;-65
2022/06/24 06:18:09;;;;;;;8.80;2.22;;;;;;;18.60;47.89;95621.25;1797609;79;21470;-65
2022/06/24 06:20:36;;;;;;;2.45;2.10;;;;;;;18.77;50.19;95622.23;1820204;79;20972;-65
2022/06/24 06:23:04;;;;;;;2.27;2.05;;;;;;;18.98;50.94;95625.17;1820292;79;21048;-65
2022/06/24 06:25:33;;;;;;;5.17;2.08;;;;;;;19.19;50.66;95623.66;1820283;79;21115;-65
2022/06/24 06:28:04;;;;;;;2.20;1.75;;;;;;;19.40;50.48;95623.89;1820118;79;21027;-65
2022/06/24 06:30:32;;;;;;;2.70;1.80;;;;;;;19.59;49.54;95619.74;1821012;79;21466;-65
2022/06/24 06:32:58;;;;;;;4.55;1.75;;;;;;;19.78;49.24;95616.98;1820473;79;20992;-65
2022/06/24 06:35:25;;;;;;;4.55;2.02;;;;;;;19.91;47.87;95614.95;1797440;79;21087;-65
2022/06/24 06:37:53;;;;;;;2.75;1.90;;;;;;;20.04;47.72;95608.84;1820558;78;21458;-65
2022/06/24 06:40:19;;;;;;;4.67;1.90;;;;;;;20.15;46.61;95616.27;1820177;79;21055;-65
2022/06/24 06:42:46;;;;;;;3.08;1.82;;;;;;;20.28;46.21;95616.44;1820428;79;20997;-65
2022/06/24 06:45:13;;;;;;;3.60;2.20;;;;;;;20.40;45.60;95617.09;1820096;78;21036;-65
2022/06/24 06:47:40;;;;;;;2.22;1.70;;;;;;;20.53;46.88;95615.91;1820484;79;20972;-65
2022/06/24 06:50:08;;;;;;;2.77;1.70;;;;;;;20.64;44.93;95615.34;1820091;79;21478;-65
2022/06/24 06:52:34;;;;;;;2.08;1.82;;;;;;;20.70;45.05;95612.29;1820375;79;21473;-65
2022/06/24 06:55:02;;;;;;;5.00;2.47;;;;;;;20.84;45.06;95621.74;1820412;79;20941;-65
2022/06/24 06:57:29;;;;;;;3.58;2.17;;;;;;;20.88;44.48;95614.37;1819831;79;21060;-65
2022/06/24 06:59:55;;;;;;;2.30;2.10;;;;;;;20.97;44.38;95617.86;1820661;79;20972;-65
2022/06/24 07:02:22;;;;;;;3.42;1.90;;;;;;;21.07;44.90;95618.18;1820327;79;21004;-65
2022/06/24 07:04:49;;;;;;;2.37;1.95;;;;;;;21.15;43.89;95624.80;1820568;79;20929;-65
2022/06/24 07:07:16;;;;;;;3.90;1.82;;;;;;;21.25;44.10;95625.60;1820585;79;21012;-65
2022/06/24 07:09:43;;;;;;;3.58;1.95;;;;;;;21.42;44.57;95632.64;1820184;79;20964;-65
2022/06/24 07:12:09;;;;;;;2.75;2.02;;;;;;;21.43;42.84;95623.66;1820600;79;20972;-65
2022/06/24 07:14:36;;;;;;;8.90;2.20;;;;;;;21.55;43.45;95627.79;1820238;79;21039;-65
2022/06/24 07:17:04;;;;;;;4.97;2.10;;;;;;;21.65;42.89;95625.89;1797737;79;21041;-65
2022/06/24 07:19:30;;;;;;;2.02;1.77;;;;;;;21.71;43.29;95620.13;1820284;79;21457;-65
2022/06/24 07:21:57;;;;;;;4.47;2.08;;;;;;;21.89;43.52;95622.13;1820469;79;20988;-65
2022/06/24 07:24:24;;;;;;;3.12;2.00;;;;;;;21.98;41.80;95615.70;1819803;79;21023;-65
2022/06/24 07:26:51;;;;;;;2.25;1.75;;;;;;;22.00;41.46;95606.22;1820293;79;21146;-65
2022/06/24 07:29:17;;;;;;;2.65;1.90;;;;;;;22.10;42.70;95609.16;1820600;79;20948;-65
2022/06/24 07:31:47;;;;;;;3.87;1.85;;;;;;;22.28;42.74;95612.55;1820245;79;21457;-65
2022/06/24 07:34:12;;;;;;;2.00;1.80;;;;;;;22.38;42.01;95610.98;1820319;79;21020;-65
2022/06/24 07:36:39;;;;;;;2.00;1.70;;;;;;;22.50;41.61;95597.20;1820455;79;21008;-66
2022/06/24 07:39:06;;;;;;;2.25;1.75;;;;;;;22.45;41.35;95610.48;1819835;79;21012;-65
2022/06/24 07:41:33;;;;;;;2.83;1.98;;;;;;;22.61;42.08;95616.20;1820791;79;20956;-65
2022/06/24 07:43:59;;;;;;;2.45;1.60;;;;;;;22.71;40.73;95615.11;1820571;79;20992;-66
2022/06/24 07:46:27;;;;;;;2.55;1.72;;;;;;;22.81;40.60;95613.04;1811222;78;21517;-65
2022/06/24 07:48:54;;;;;;;4.85;1.65;;;;;;;22.82;39.89;95612.55;1809319;78;21017;-65
2022/06/24 07:51:22;;;;;;;2.27;1.87;;;;;;;22.84;38.52;95611.97;1809537;79;21494;-65
2022/06/24 07:53:49;;;;;;;2.10;1.62;;;;;;;22.97;39.42;95610.20;1809578;79;21004;-65
2022/06/24 07:59:01;;;;;;;1.87;1.77;;;;;;;23.19;38.60;95606.93;1809646;79;20973;-65
2022/06/24 08:01:28;;;;;;;1.98;1.70;;;;;;;23.32;37.79;95600.22;1809569;79;20973;-65
2022/06/24 08:03:54;;;;;;;2.20;1.52;;;;;;;23.40;38.00;95599.69;1809676;79;21041;-65
2022/06/24 08:06:21;;;;;;;4.08;2.08;;;;;;;23.49;37.37;95600.41;1809573;79;21530;-66
2022/06/24 08:08:48;;;;;;;4.87;1.92;;;;;;;23.56;37.85;95601.67;1809808;78;21008;-66
2022/06/24 08:11:15;;;;;;;3.27;1.80;;;;;;;23.60;36.66;95588.37;1809582;78;20988;-65
2022/06/24 08:13:41;;;;;;;1.60;1.50;;;;;;;23.66;38.03;95590.66;1809542;78;21028;-65
2022/06/24 08:16:09;;;;;;;1.82;1.55;;;;;;;23.83;38.68;95584.09;1809719;78;21068;-65
2022/06/24 08:18:35;;;;;;;3.85;1.80;;;;;;;24.07;38.02;95584.17;1809547;79;20981;-65
2022/06/24 08:21:02;;;;;;;2.65;1.77;;;;;;;24.10;36.91;95580.39;1787234;79;21040;-65
2022/06/24 08:23:29;;;;;;;4.60;1.67;;;;;;;24.12;36.67;95575.27;1809681;79;20977;-65
2022/06/24 08:25:56;;;;;;;3.55;2.05;;;;;;;24.18;37.36;95577.50;1809433;79;20997;-65
2022/06/24 08:28:22;;;;;;;2.50;1.50;;;;;;;24.44;37.53;95573.86;1809742;78;21027;-65
2022/06/24 08:30:50;;;;;;;1.90;1.80;;;;;;;24.60;36.00;95575.35;1809304;79;21625;-65
2022/06/24 08:33:16;;;;;;;4.25;1.75;;;;;;;24.65;36.27;95571.46;1809580;79;21012;-65
2022/06/24 08:35:43;;;;;;;4.05;1.60;;;;;;;24.76;36.35;95568.80;1809639;78;20961;-65
2022/06/24 08:38:15;;;;;;;2.65;1.55;;;;;;;24.86;36.11;95563.08;1809550;79;21008;-65
2022/06/24 08:40:45;;;;;;;1.80;1.47;;;;;;;24.98;35.46;95558.10;1809415;78;21028;-66
2022/06/24 08:43:13;;;;;;;1.50;1.40;;;;;;;25.13;36.01;95558.77;1808834;79;21047;-65
2022/06/24 08:45:40;;;;;;;2.30;1.60;;;;;;;25.24;35.42;95556.61;1809478;79;21044;-65
2022/06/24 08:48:09;;;;;;;1.95;1.75;;;;;;;25.37;34.74;95556.02;1809648;79;20996;-65
2022/06/24 08:50:36;;;;;;;3.80;2.10;;;;;;;25.48;34.60;95551.16;1808691;79;21047;-66
2022/06/24 08:53:07;;;;;;;3.15;1.90;;;;;;;25.42;33.09;95557.87;1807434;79;20999;-65
2022/06/24 08:55:39;;;;;;;2.52;2.27;;;;;;;25.43;32.52;95556.91;1806743;79;21568;-65
2022/06/24 08:58:11;;;;;;;2.60;1.98;;;;;;;25.61;33.92;95551.89;1808128;79;20995;-65
2022/06/24 09:00:40;;;;;;;2.33;2.10;;;;;;;25.83;32.68;95538.01;1808696;79;21042;-65
2022/06/24 09:03:08;;;;;;;2.20;2.00;;;;;;;26.03;33.89;95544.08;1807520;79;21583;-65
2022/06/24 09:05:36;;;;;;;2.80;1.92;;;;;;;26.28;33.54;95542.95;1807852;79;21015;-65
2022/06/24 09:08:06;;;;;;;3.12;1.70;;;;;;;26.38;33.34;95544.88;1808117;79;21031;-65
2022/06/24 09:10:35;;;;;;;1.87;1.62;;;;;;;26.51;31.22;95538.34;1807965;79;21517;-65
2022/06/24 09:13:02;;;;;;;3.02;2.02;;;;;;;26.69;31.92;95533.27;1808061;79;21449;-65
2022/06/24 09:15:29;;;;;;;1.75;1.65;;;;;;;26.80;32.18;95536.92;1806593;79;21058;-66
2022/06/24 09:17:56;;;;;;;2.22;1.90;;;;;;;26.88;32.24;95539.33;1806826;79;21057;-65
2022/06/24 09:20:29;;;;;;;2.52;1.70;;;;;;;27.02;32.26;95529.20;1807232;79;21003;-65
2022/06/24 09:23:10;;;;;;;2.85;1.65;;;;;;;27.04;32.35;95533.97;1807382;79;21038;-65
2022/06/24 09:25:47;;;;;;;3.15;2.00;;;;;;;27.15;32.42;95532.58;1807683;79;20991;-65
2022/06/24 09:28:23;;;;;;;1.62;1.52;;;;;;;27.11;29.48;95528.39;1807609;79;21462;-65
2022/06/24 09:30:51;;;;;;;3.55;1.62;;;;;;;27.11;29.03;95529.25;1791938;79;20995;-65
2022/06/24 09:33:19;;;;;;;2.42;1.70;;;;;;;27.27;29.01;95532.91;1808262;79;20951;-65
2022/06/24 09:35:45;;;;;;;1.90;1.77;;;;;;;27.32;28.68;95536.58;1808129;79;21007;-66
2022/06/24 09:38:12;;;;;;;2.62;2.00;;;;;;;27.36;28.25;95532.59;1808082;79;21498;-65
2022/06/24 09:40:43;;;;;;;2.08;1.80;;;;;;;27.54;28.02;95532.38;1807852;79;20956;-65
2022/06/24 09:43:09;;;;;;;4.25;1.82;;;;;;;27.50;26.67;95534.13;1808287;79;21449;-65
2022/06/24 09:45:48;;;;;;;2.67;1.98;;;;;;;27.54;27.93;95532.84;1807157;79;21560;-65
2022/06/24 09:48:37;;;;;;;3.72;2.10;;;;;;;27.71;27.90;95530.02;1805875;79;21027;-65
2022/06/24 09:51:06;;;;;;;3.77;1.60;;;;;;;27.92;27.52;95520.04;1805346;79;21130;-65
2022/06/24 09:53:36;;;;;;;3.30;1.75;;;;;;;28.02;26.58;95523.64;1805641;79;21490;-65
2022/06/24 09:56:07;;;;;;;1.55;1.45;;;;;;;27.76;28.03;95523.20;1805201;79;21050;-65
2022/06/24 09:58:39;;;;;;;2.10;1.90;;;;;;;27.95;27.99;95521.11;1805572;79;21505;-65
2022/06/24 10:01:07;;;;;;;2.72;1.65;;;;;;;27.87;26.51;95519.59;1805707;79;21011;-65
2022/06/24 10:03:35;;;;;;;1.98;1.77;;;;;;;28.07;27.53;95514.22;1805644;79;21011;-65
2022/06/24 10:06:08;;;;;;;1.70;1.60;;;;;;;28.28;26.86;95512.80;1805466;79;21442;-65
2022/06/24 10:08:35;;;;;;;1.92;1.82;;;;;;;28.36;26.85;95513.80;1805787;79;20976;-65
2022/06/24 10:11:10;;;;;;;3.27;1.70;;;;;;;28.36;26.27;95516.52;1805526;79;20956;-65
2022/06/24 10:13:38;;;;;;;4.58;1.70;;;;;;;28.17;27.34;95513.27;1805566;79;21465;-65
2022/06/24 10:16:07;;;;;;;1.87;1.70;;;;;;;28.24;26.71;95510.34;1805530;79;21055;-65
2022/06/24 10:18:40;;;;;;;5.65;1.80;;;;;;;28.24;27.47;95508.98;1805482;79;21083;-65
2022/06/24 10:21:09;;;;;;;2.22;1.80;;;;;;;28.42;27.33;95508.31;1805756;79;21008;-65
2022/06/24 10:23:53;;;;;;;2.37;1.70;;;;;;;28.50;27.22;95502.22;1805639;79;20964;-65
2022/06/24 10:26:26;;;;;;;2.40;1.50;;;;;;;28.62;27.27;95497.02;1805075;79;20995;-65
2022/06/24 10:29:05;;;;;;;6.72;1.92;;;;;;;28.74;26.55;95498.60;1805414;79;20984;-65
2022/06/24 10:31:49;;;;;;;1.85;1.75;;;;;;;28.75;27.45;95502.17;1805738;79;20991;-65
2022/06/24 10:34:33;;;;;;;1.65;1.50;;;;;;;28.87;26.87;95500.52;1805188;79;21035;-65
2022/06/24 10:37:18;;;;;;;2.77;1.50;;;;;;;29.16;26.26;95495.63;1804613;79;21039;-65
2022/06/24 10:39:51;;;;;;;3.60;1.60;;;;;;;29.36;26.27;95489.66;1805546;79;20984;-65
2022/06/24 10:42:24;;;;;;;3.27;1.82;;;;;;;29.66;25.64;95487.73;1805544;79;21042;-65
2022/06/24 10:45:01;;;;;;;2.60;1.60;;;;;;;29.67;25.72;95483.52;1805635;79;20999;-65
2022/06/24 10:47:38;;;;;;;2.72;1.65;;;;;;;29.70;25.62;95490.01;1805543;79;21004;-65
2022/06/24 10:50:14;;;;;;;3.67;1.70;;;;;;;29.42;25.98;95489.57;1805723;79;21473;-65
2022/06/24 10:52:48;;;;;;;2.05;1.77;;;;;;;29.26;24.47;95486.95;1805666;79;21482;-65
2022/06/24 10:55:29;;;;;;;1.70;1.60;;;;;;;29.06;26.28;95484.77;1804888;79;20972;-65
2022/06/24 10:58:11;;;;;;;4.55;2.00;;;;;;;29.22;26.06;95480.09;1805655;79;21043;-65
2022/06/24 11:00:48;;;;;;;2.08;1.80;;;;;;;29.37;26.50;95484.57;1805895;79;21438;-65
2022/06/24 11:03:16;;;;;;;2.17;1.50;;;;;;;29.60;26.08;95471.99;1805207;79;21005;-65
2022/06/24 11:05:45;;;;;;;4.70;1.90;;;;;;;29.62;26.61;95468.12;1805772;79;21000;-65
2022/06/24 11:08:19;;;;;;;1.90;1.80;;;;;;;29.43;26.38;95472.25;1805288;79;21022;-65
2022/06/24 11:10:47;;;;;;;2.55;1.70;;;;;;;29.57;27.31;95468.22;1805557;79;21047;-65
2022/06/24 11:13:15;;;;;;;2.50;1.82;;;;;;;29.71;24.98;95467.75;1805235;79;21039;-65
2022/06/24 11:15:55;;;;;;;2.05;1.77;;;;;;;29.78;25.16;95469.38;1805541;79;21035;-65
2022/06/24 11:18:33;;;;;;;3.12;1.50;;;;;;;30.01;24.56;95457.59;1805533;79;20996;-65
2022/06/24 11:21:07;;;;;;;3.08;1.98;;;;;;;30.12;25.22;95459.63;1804786;79;20988;-65
2022/06/24 11:23:40;;;;;;;2.20;1.52;;;;;;;30.17;24.52;95457.81;1805378;79;21023;-65
2022/06/24 11:26:19;;;;;;;1.92;1.65;;;;;;;30.29;25.58;95462.07;1805514;79;21505;-65
2022/06/24 11:28:52;;;;;;;3.20;1.60;;;;;;;30.48;23.88;95467.02;1805257;79;21533;-65
2022/06/24 11:31:30;;;;;;;2.80;1.72;;;;;;;30.33;24.01;95455.80;1805568;79;20983;-65
2022/06/24 11:34:08;;;;;;;2.77;1.80;;;;;;;30.46;24.58;95456.28;1805529;79;21030;-65
2022/06/24 11:36:37;;;;;;;3.80;1.65;;;;;;;30.51;23.92;95453.95;1805421;79;21542;-65
2022/06/24 11:39:09;;;;;;;3.05;1.52;;;;;;;30.61;24.36;95462.90;1805540;79;21019;-65
2022/06/24 11:41:42;;;;;;;3.17;1.72;;;;;;;30.78;24.27;95470.73;1805569;79;21457;-65
2022/06/24 11:44:09;;;;;;;2.58;1.40;;;;;;;30.91;23.55;95464.07;1804987;79;21055;-65
2022/06/24 11:46:36;;;;;;;3.10;1.92;;;;;;;30.77;23.35;95454.53;1805259;79;21070;-65
2022/06/24 11:49:10;;;;;;;2.98;1.87;;;;;;;30.92;23.93;95454.39;1805694;79;20964;-65
2022/06/24 11:51:36;;;;;;;3.42;1.60;;;;;;;30.97;23.69;95457.98;1805644;79;21042;-65
2022/06/24 11:54:08;;;;;;;2.15;1.87;;;;;;;31.11;24.09;95451.98;1805259;79;21075;-65